createdAt,value
2022-08-29T00:00:31.123Z,100815.75
2022-08-29T00:03:03.208Z,100822.84
2022-08-29T00:05:40.111Z,100814.75
2022-08-29T00:08:11.089Z,100819.22
2022-08-29T00:10:39.140Z,100825.88
2022-08-29T00:13:08.535Z,100821.41
2022-08-29T00:15:41.665Z,100823.63
2022-08-29T00:18:14.635Z,100818.19
2022-08-29T00:20:42.532Z,100825.25
2022-08-29T00:23:10.041Z,100822.72
2022-08-29T00:25:37.578Z,100828.75
2022-08-29T00:28:05.121Z,100825.44
2022-08-29T00:30:33.360Z,100831.84
2022-08-29T00:33:00.021Z,100826.00
2022-08-29T00:35:32.077Z,100830.25
2022-08-29T00:37:59.125Z,100826.56
2022-08-29T00:40:34.777Z,100842.34
2022-08-29T00:43:01.986Z,100846.56
2022-08-29T00:45:29.569Z,100833.72
2022-08-29T00:48:06.187Z,100840.25
2022-08-29T00:50:39.006Z,100838.75
2022-08-29T00:53:10.344Z,100835.03
2022-08-29T00:55:39.041Z,100831.97
2022-08-29T00:58:18.395Z,100842.94
2022-08-29T01:00:46.236Z,100831.16
2022-08-29T01:03:13.570Z,100829.06
2022-08-29T01:05:41.457Z,100832.78
2022-08-29T01:08:08.162Z,100831.38
2022-08-29T01:10:57.522Z,100832.78
2022-08-29T01:13:30.039Z,100833.31
2022-08-29T01:15:58.206Z,100835.25
2022-08-29T01:18:27.451Z,100844.25
2022-08-29T01:21:15.474Z,100845.91
2022-08-29T01:23:46.156Z,100838.84
2022-08-29T01:26:13.297Z,100842.16
2022-08-29T01:28:43.578Z,100862.53
2022-08-29T01:31:15.535Z,100856.34
2022-08-29T01:34:02.949Z,100849.75
2022-08-29T01:37:04.030Z,100851.41
2022-08-29T01:39:34.253Z,100842.06
2022-08-29T01:42:05.854Z,100845.44
2022-08-29T01:44:33.463Z,100844.63
2022-08-29T01:47:07.329Z,100850.44
2022-08-29T01:49:38.767Z,100862.34
2022-08-29T01:52:08.644Z,100859.38
2022-08-29T01:54:35.341Z,100872.09
2022-08-29T01:57:02.054Z,100869.84
2022-08-29T01:59:30.639Z,100868.38
2022-08-29T02:02:08.451Z,100878.75
2022-08-29T02:04:35.463Z,100879.03
2022-08-29T02:07:07.320Z,100877.16
2022-08-29T02:09:37.265Z,100881.97
2022-08-29T02:12:07.063Z,100896.09
2022-08-29T02:14:35.479Z,100898.06
2022-08-29T02:17:07.204Z,100907.38
2022-08-29T02:19:37.448Z,100908.56
2022-08-29T02:22:05.369Z,100914.03
2022-08-29T02:24:32.613Z,100912.28
2022-08-29T02:26:59.368Z,100926.63
2022-08-29T02:29:35.238Z,100926.78
2022-08-29T02:32:11.867Z,100921.38
2022-08-29T02:34:38.699Z,100919.72
2022-08-29T02:37:06.040Z,100924.38
2022-08-29T02:39:33.881Z,100916.84
2022-08-29T02:42:00.881Z,100920.16
2022-08-29T02:44:27.799Z,100910.88
2022-08-29T02:46:54.535Z,100915.88
2022-08-29T02:49:23.851Z,100921.03
2022-08-29T02:51:50.448Z,100930.69
2022-08-29T02:54:17.245Z,100922.34
2022-08-29T02:56:43.852Z,100919.69
2022-08-29T02:59:10.672Z,100923.66
2022-08-29T03:01:39.071Z,100915.78
2022-08-29T03:04:06.367Z,100910.94
2022-08-29T03:06:33.509Z,100923.34
2022-08-29T03:09:00.253Z,100915.00
2022-08-29T03:11:28.606Z,100917.25
2022-08-29T03:13:57.624Z,100917.16
2022-08-29T03:16:25.734Z,100926.84
2022-08-29T03:18:52.439Z,100917.78
2022-08-29T03:21:22.038Z,100921.22
2022-08-29T03:23:49.834Z,100920.59
2022-08-29T03:26:17.472Z,100930.16
2022-08-29T03:28:44.519Z,100934.56
2022-08-29T03:31:11.378Z,100923.59
2022-08-29T03:33:38.529Z,100930.28
2022-08-29T03:36:08.806Z,100930.28
2022-08-29T03:38:41.282Z,100935.28
2022-08-29T03:41:08.940Z,100934.81
2022-08-29T03:43:35.718Z,100928.16
2022-08-29T03:46:02.346Z,100930.28
2022-08-29T03:48:35.046Z,100919.31
2022-08-29T03:51:02.503Z,100923.53
2022-08-29T03:53:30.726Z,100933.31
2022-08-29T03:55:58.043Z,100947.75
2022-08-29T03:58:25.265Z,100963.22
2022-08-29T04:00:52.045Z,100955.50
2022-08-29T04:03:20.097Z,100958.34
2022-08-29T04:05:49.113Z,100955.00
2022-08-29T04:08:21.000Z,100956.78
2022-08-29T04:10:47.702Z,100953.72
2022-08-29T04:13:14.949Z,100951.53
2022-08-29T04:15:42.795Z,100955.13
2022-08-29T04:18:11.031Z,100952.28
2022-08-29T04:20:40.123Z,100957.03
2022-08-29T04:23:07.583Z,100964.56
2022-08-29T04:25:37.954Z,100977.44
2022-08-29T04:28:07.022Z,100977.34
2022-08-29T04:30:34.939Z,100980.56
2022-08-29T04:33:01.652Z,100986.41
2022-08-29T04:35:29.841Z,100982.94
2022-08-29T04:37:57.054Z,100995.09
2022-08-29T04:40:23.784Z,101000.59
2022-08-29T04:42:50.794Z,101000.97
2022-08-29T04:45:20.974Z,100998.81
2022-08-29T04:47:47.868Z,100999.03
2022-08-29T04:50:20.747Z,101002.03
2022-08-29T04:52:49.422Z,101009.41
2022-08-29T04:55:21.488Z,101019.56
2022-08-29T04:57:50.466Z,101009.66
2022-08-29T05:00:23.281Z,101017.06
2022-08-29T05:02:50.023Z,101023.41
2022-08-29T05:05:17.081Z,101027.31
2022-08-29T05:07:46.317Z,101024.34
2022-08-29T05:10:17.279Z,101020.16
2022-08-29T05:12:45.161Z,101026.59
2022-08-29T05:15:13.299Z,101022.66
2022-08-29T05:17:40.336Z,101025.28
2022-08-29T05:20:08.523Z,101027.09
2022-08-29T05:22:36.301Z,101026.13
2022-08-29T05:25:04.918Z,101045.47
2022-08-29T05:27:31.928Z,101050.94
2022-08-29T05:29:58.577Z,101053.31
2022-08-29T05:32:25.459Z,101055.09
2022-08-29T05:34:52.120Z,101058.59
2022-08-29T05:37:20.875Z,101052.72
2022-08-29T05:39:48.651Z,101065.56
2022-08-29T05:42:17.694Z,101061.91
2022-08-29T05:44:44.532Z,101067.00
2022-08-29T05:47:15.272Z,101075.34
2022-08-29T05:49:46.077Z,101072.03
2022-08-29T05:52:15.622Z,101077.19
2022-08-29T05:54:44.057Z,101090.53
2022-08-29T05:57:18.990Z,101080.13
2022-08-29T05:59:52.093Z,101082.88
2022-08-29T06:02:20.478Z,101082.88
2022-08-29T06:04:49.866Z,101078.22
2022-08-29T06:07:17.119Z,101088.13
2022-08-29T06:09:44.964Z,101078.84
2022-08-29T06:12:13.832Z,101091.75
2022-08-29T06:14:41.440Z,101095.84
2022-08-29T06:17:16.985Z,101100.72
2022-08-29T06:19:43.869Z,101109.06
2022-08-29T06:22:11.422Z,101105.91
2022-08-29T06:24:44.559Z,101114.66
2022-08-29T06:27:12.439Z,101109.84
2022-08-29T06:29:43.396Z,101114.78
2022-08-29T06:32:11.570Z,101118.84
2022-08-29T06:34:38.286Z,101128.41
2022-08-29T06:37:04.872Z,101118.94
2022-08-29T06:39:31.790Z,101123.69
2022-08-29T06:41:58.406Z,101131.34
2022-08-29T06:44:26.537Z,101126.09
2022-08-29T06:46:58.227Z,101136.69
2022-08-29T06:49:25.796Z,101138.41
2022-08-29T06:51:56.942Z,101147.44
2022-08-29T06:54:27.940Z,101147.31
2022-08-29T06:56:56.477Z,101150.94
2022-08-29T06:59:23.078Z,101159.25
2022-08-29T07:01:50.079Z,101163.06
2022-08-29T07:04:16.924Z,101163.88
2022-08-29T07:06:50.799Z,101171.31
2022-08-29T07:09:17.714Z,101171.53
2022-08-29T07:11:44.549Z,101174.28
2022-08-29T07:14:12.344Z,101169.63
2022-08-29T07:16:40.299Z,101178.81
2022-08-29T07:19:09.041Z,101182.16
2022-08-29T07:21:36.105Z,101191.72
2022-08-29T07:24:04.890Z,101193.75
2022-08-29T07:26:41.398Z,101187.91
2022-08-29T07:29:14.994Z,101193.75
2022-08-29T07:31:41.964Z,101188.59
2022-08-29T07:34:09.305Z,101188.50
2022-08-29T07:36:38.912Z,101188.56
2022-08-29T07:39:08.310Z,101189.16
2022-08-29T07:41:35.377Z,101192.59
2022-08-29T07:44:02.089Z,101190.63
2022-08-29T07:46:29.305Z,101194.84
2022-08-29T07:48:58.097Z,101193.88
2022-08-29T07:51:25.419Z,101182.91
2022-08-29T07:53:52.785Z,101184.28
2022-08-29T07:56:23.161Z,101196.06
2022-08-29T07:58:51.855Z,101194.44
2022-08-29T08:01:21.390Z,101196.59
2022-08-29T08:03:50.651Z,101198.72
2022-08-29T08:06:22.402Z,101202.13
2022-08-29T08:08:49.973Z,101196.19
2022-08-29T08:11:17.869Z,101206.34
2022-08-29T08:13:44.644Z,101200.72
2022-08-29T08:16:15.287Z,101204.84
2022-08-29T08:18:43.657Z,101203.75
2022-08-29T08:21:11.376Z,101221.50
2022-08-29T08:23:38.573Z,101211.75
2022-08-29T08:26:06.312Z,101218.00
2022-08-29T08:28:33.231Z,101217.41
2022-08-29T08:31:05.918Z,101233.63
2022-08-29T08:33:35.478Z,101242.50
2022-08-29T08:36:06.207Z,101242.72
2022-08-29T08:38:32.854Z,101242.25
2022-08-29T08:41:10.760Z,101243.19
2022-08-29T08:43:50.377Z,101244.94
2022-08-29T08:46:19.667Z,101241.38
2022-08-29T08:48:48.319Z,101243.28
2022-08-29T08:51:21.702Z,101248.63
2022-08-29T08:53:56.547Z,101254.28
2022-08-29T08:56:33.204Z,101248.50
2022-08-29T08:59:26.273Z,101258.66
2022-08-29T09:02:07.536Z,101254.25
2022-08-29T09:04:56.660Z,101254.00
2022-08-29T09:07:50.770Z,101255.91
2022-08-29T09:10:47.551Z,101269.31
2022-08-29T09:13:31.930Z,101269.53
2022-08-29T09:16:01.282Z,101273.84
2022-08-29T09:18:36.246Z,101268.69
2022-08-29T09:21:39.354Z,101265.13
2022-08-29T09:24:06.161Z,101274.44
2022-08-29T09:26:32.976Z,101265.22
2022-08-29T09:28:59.585Z,101284.81
2022-08-29T09:31:35.533Z,101287.44
2022-08-29T09:34:12.763Z,101286.28
2022-08-29T09:36:47.701Z,101284.50
2022-08-29T09:39:20.490Z,101292.50
2022-08-29T09:41:54.697Z,101297.53
2022-08-29T09:44:30.805Z,101293.94
2022-08-29T09:47:21.951Z,101287.13
2022-08-29T09:50:07.329Z,101298.59
2022-08-29T09:52:35.389Z,101297.28
2022-08-29T09:55:24.791Z,101304.19
2022-08-29T09:58:03.846Z,101300.16
2022-08-29T10:00:40.602Z,101307.41
2022-08-29T10:03:10.754Z,101317.22
2022-08-29T10:05:45.270Z,101316.38
2022-08-29T10:08:35.187Z,101325.59
2022-08-29T10:11:19.974Z,101326.53
2022-08-29T10:13:54.889Z,101331.19
2022-08-29T10:16:27.778Z,101329.19
2022-08-29T10:19:04.429Z,101324.53
2022-08-29T10:21:49.188Z,101336.72
2022-08-29T10:24:32.974Z,101330.88
2022-08-29T10:27:28.496Z,101331.59
2022-08-29T10:30:00.812Z,101333.25
2022-08-29T10:33:04.513Z,101340.53
2022-08-29T10:36:00.988Z,101346.66
2022-08-29T10:38:36.971Z,101340.06
2022-08-29T10:41:21.701Z,101345.47
2022-08-29T10:44:09.167Z,101350.47
2022-08-29T10:47:02.685Z,101354.91
2022-08-29T10:49:48.179Z,101366.38
2022-08-29T10:52:29.948Z,101356.72
2022-08-29T10:54:59.498Z,101359.91
2022-08-29T10:57:47.308Z,101359.47
2022-08-29T11:00:24.439Z,101357.91
2022-08-29T11:03:50.871Z,101362.31
2022-08-29T11:06:43.505Z,101355.13
2022-08-29T11:09:25.460Z,101361.56
2022-08-29T11:12:17.578Z,101364.91
2022-08-29T11:15:02.946Z,101367.66
2022-08-29T11:17:34.831Z,101362.69
2022-08-29T11:20:13.714Z,101373.75
2022-08-29T11:22:43.956Z,101377.97
2022-08-29T11:25:20.963Z,101378.81
2022-08-29T11:28:06.430Z,101390.44
2022-08-29T11:31:00.278Z,101378.31
2022-08-29T11:33:49.043Z,101367.38
2022-08-29T11:36:28.014Z,101380.47
2022-08-29T11:39:10.009Z,101369.84
2022-08-29T11:41:46.811Z,101366.06
2022-08-29T11:44:29.609Z,101366.44
2022-08-29T11:46:57.731Z,101358.19
2022-08-29T11:49:30.506Z,101366.31
2022-08-29T11:52:13.457Z,101365.44
2022-08-29T11:54:43.194Z,101374.53
2022-08-29T11:57:12.209Z,101383.91
2022-08-29T11:59:50.915Z,101376.19
2022-08-29T12:02:32.810Z,101376.81
2022-08-29T12:05:01.037Z,101385.19
2022-08-29T12:07:40.705Z,101374.00
2022-08-29T12:10:29.405Z,101376.25
2022-08-29T12:13:06.440Z,101390.47
2022-08-29T12:15:33.151Z,101379.22
2022-08-29T12:18:03.805Z,101381.41
2022-08-29T12:20:30.794Z,101381.41
2022-08-29T12:23:03.850Z,101378.03
2022-08-29T12:25:44.661Z,101380.41
2022-08-29T12:28:20.974Z,101378.09
2022-08-29T12:31:08.350Z,101366.56
2022-08-29T12:34:01.207Z,101374.53
2022-08-29T12:36:36.581Z,101379.13
2022-08-29T12:39:29.364Z,101369.81
2022-08-29T12:42:09.095Z,101389.91
2022-08-29T12:44:38.314Z,101374.72
2022-08-29T12:47:14.226Z,101367.47
2022-08-29T12:49:51.747Z,101377.66
2022-08-29T12:52:21.137Z,101375.19
2022-08-29T12:54:48.194Z,101377.16
2022-08-29T12:57:33.015Z,101387.28
2022-08-29T13:00:02.095Z,101369.16
2022-08-29T13:02:32.557Z,101381.97
2022-08-29T13:05:00.283Z,101378.47
2022-08-29T13:07:28.717Z,101374.13
2022-08-29T13:09:59.019Z,101385.78
2022-08-29T13:12:27.176Z,101367.69
2022-08-29T13:14:56.059Z,101383.28
2022-08-29T13:17:34.340Z,101380.19
2022-08-29T13:20:38.692Z,101378.88
2022-08-29T13:23:10.351Z,101378.72
2022-08-29T13:25:44.052Z,101376.34
2022-08-29T13:28:23.655Z,101385.94
2022-08-29T13:31:29.687Z,101378.75
2022-08-29T13:33:56.575Z,101382.66
2022-08-29T13:36:40.871Z,101385.50
2022-08-29T13:39:25.060Z,101376.06
2022-08-29T13:41:57.573Z,101381.91
2022-08-29T13:44:27.189Z,101383.75
2022-08-29T13:47:01.204Z,101380.94
2022-08-29T13:49:32.300Z,101389.00
2022-08-29T13:52:00.762Z,101391.78
2022-08-29T13:54:35.713Z,101398.78
2022-08-29T13:57:07.895Z,101391.94
2022-08-29T13:59:36.790Z,101391.22
2022-08-29T14:02:11.513Z,101396.66
2022-08-29T14:04:40.620Z,101397.34
2022-08-29T14:07:12.041Z,101383.00
2022-08-29T14:09:42.973Z,101399.59
2022-08-29T14:12:14.041Z,101407.06
2022-08-29T14:14:41.989Z,101400.31
2022-08-29T14:17:09.018Z,101397.28
2022-08-29T14:19:39.398Z,101405.75
2022-08-29T14:22:06.216Z,101399.09
2022-08-29T14:24:33.905Z,101400.22
2022-08-29T14:27:02.699Z,101400.38
2022-08-29T14:29:34.023Z,101409.38
2022-08-29T14:32:03.194Z,101407.16
2022-08-29T14:34:32.808Z,101406.81
2022-08-29T14:37:01.122Z,101407.34
2022-08-29T14:39:28.774Z,101410.56
2022-08-29T14:41:59.475Z,101405.81
2022-08-29T14:44:27.321Z,101403.00
2022-08-29T14:46:54.106Z,101412.88
2022-08-29T14:49:20.805Z,101411.34
2022-08-29T14:51:47.586Z,101409.41
2022-08-29T14:54:15.196Z,101410.00
2022-08-29T14:56:50.611Z,101417.78
2022-08-29T14:59:22.468Z,101420.34
2022-08-29T15:01:54.333Z,101416.69
2022-08-29T15:04:36.336Z,101417.47
2022-08-29T15:07:11.696Z,101422.50
2022-08-29T15:09:41.633Z,101423.06
2022-08-29T15:12:11.506Z,101422.75
2022-08-29T15:14:39.571Z,101415.19
2022-08-29T15:17:06.504Z,101412.97
2022-08-29T15:22:22.702Z,101413.31
2022-08-29T15:24:50.782Z,101416.75
2022-08-29T15:27:21.571Z,101422.31
2022-08-29T15:29:50.517Z,101427.50
2022-08-29T15:32:19.587Z,101427.22
2022-08-29T15:34:49.311Z,101430.19
2022-08-29T15:37:16.669Z,101429.25
2022-08-29T15:39:43.519Z,101425.06
2022-08-29T15:42:11.794Z,101419.88
2022-08-29T15:44:44.089Z,101431.84
2022-08-29T15:47:11.458Z,101430.69
2022-08-29T15:49:39.484Z,101427.22
2022-08-29T15:52:13.794Z,101428.13
2022-08-29T15:54:40.815Z,101432.78
2022-08-29T15:57:08.053Z,101439.19
2022-08-29T15:59:57.112Z,101428.38
2022-08-29T16:02:29.605Z,101436.25
2022-08-29T16:04:58.974Z,101439.00
2022-08-29T16:07:29.243Z,101438.41
2022-08-29T16:10:01.057Z,101436.34
2022-08-29T16:12:32.488Z,101443.16
2022-08-29T16:15:01.052Z,101439.97
2022-08-29T16:17:31.492Z,101450.03
2022-08-29T16:20:00.428Z,101448.97
2022-08-29T16:22:28.355Z,101455.81
2022-08-29T16:24:55.060Z,101440.66
2022-08-29T16:27:24.953Z,101447.25
2022-08-29T16:29:53.202Z,101450.34
2022-08-29T16:32:20.722Z,101445.06
2022-08-29T16:34:47.354Z,101450.09
2022-08-29T16:37:14.592Z,101451.69
2022-08-29T16:39:41.305Z,101448.97
2022-08-29T16:42:08.092Z,101456.03
2022-08-29T16:44:34.840Z,101469.47
2022-08-29T16:47:04.897Z,101467.34
2022-08-29T16:49:31.685Z,101469.94
2022-08-29T16:52:01.096Z,101468.47
2022-08-29T16:54:28.516Z,101469.22
2022-08-29T16:56:59.230Z,101468.97
2022-08-29T16:59:37.106Z,101468.75
2022-08-29T17:02:04.973Z,101471.22
2022-08-29T17:04:31.717Z,101470.34
2022-08-29T17:07:02.408Z,101478.97
2022-08-29T17:09:30.638Z,101472.41
2022-08-29T17:12:02.169Z,101483.31
2022-08-29T17:14:30.372Z,101482.06
2022-08-29T17:16:57.230Z,101485.50
2022-08-29T17:19:24.908Z,101483.78
2022-08-29T17:21:52.017Z,101483.31
2022-08-29T17:24:18.949Z,101485.00
2022-08-29T17:26:48.911Z,101483.09
2022-08-29T17:29:18.463Z,101480.47
2022-08-29T17:31:45.901Z,101489.38
2022-08-29T17:34:12.860Z,101489.91
2022-08-29T17:36:41.798Z,101488.66
2022-08-29T17:39:08.954Z,101492.41
2022-08-29T17:41:39.728Z,101488.59
2022-08-29T17:44:09.957Z,101496.03
2022-08-29T17:46:36.789Z,101496.13
2022-08-29T17:49:07.871Z,101493.59
2022-08-29T17:51:37.402Z,101490.97
2022-08-29T17:54:10.368Z,101490.63
2022-08-29T17:56:58.199Z,101494.03
2022-08-29T17:59:28.756Z,101498.63
2022-08-29T18:01:56.279Z,101500.09
2022-08-29T18:04:31.973Z,101508.13
2022-08-29T18:06:58.793Z,101510.38
2022-08-29T18:09:25.858Z,101517.22
2022-08-29T18:11:53.442Z,101513.72
2022-08-29T18:14:23.745Z,101512.06
2022-08-29T18:16:52.280Z,101519.75
2022-08-29T18:19:22.023Z,101532.81
2022-08-29T18:21:50.346Z,101531.25
2022-08-29T18:24:17.772Z,101527.78
2022-08-29T18:26:46.587Z,101527.16
2022-08-29T18:29:13.385Z,101530.66
2022-08-29T18:31:41.806Z,101530.75
2022-08-29T18:34:12.827Z,101529.34
2022-08-29T18:36:46.242Z,101524.78
2022-08-29T18:39:15.195Z,101534.38
2022-08-29T18:41:42.028Z,101545.88
2022-08-29T18:44:11.934Z,101550.78
2022-08-29T18:46:42.356Z,101548.84
2022-08-29T18:49:17.373Z,101540.00
2022-08-29T18:51:43.983Z,101556.53
2022-08-29T18:54:10.606Z,101556.66
2022-08-29T18:56:42.379Z,101557.38
2022-08-29T18:59:09.098Z,101553.25
2022-08-29T19:01:38.668Z,101561.78
2022-08-29T19:04:06.512Z,101558.34
2022-08-29T19:06:33.133Z,101548.38
2022-08-29T19:09:00.100Z,101556.41
2022-08-29T19:11:28.253Z,101552.69
2022-08-29T19:13:55.092Z,101555.59
2022-08-29T19:16:23.779Z,101551.88
2022-08-29T19:18:51.452Z,101552.34
2022-08-29T19:21:18.780Z,101549.00
2022-08-29T19:23:52.706Z,101549.25
2022-08-29T19:26:28.384Z,101553.09
2022-08-29T19:29:01.313Z,101548.06
2022-08-29T19:31:29.072Z,101551.19
2022-08-29T19:33:56.457Z,101556.44
2022-08-29T19:36:24.447Z,101552.34
2022-08-29T19:38:52.522Z,101557.25
2022-08-29T19:41:19.905Z,101552.69
2022-08-29T19:43:46.633Z,101553.16
2022-08-29T19:46:18.110Z,101552.56
2022-08-29T19:48:48.685Z,101561.28
2022-08-29T19:51:19.894Z,101560.78
2022-08-29T19:53:48.451Z,101556.34
2022-08-29T19:56:15.214Z,101564.47
2022-08-29T19:58:42.867Z,101565.91
2022-08-29T20:01:11.659Z,101565.31
2022-08-29T20:03:40.608Z,101566.22
2022-08-29T20:06:08.559Z,101570.03
2022-08-29T20:08:41.798Z,101568.94
2022-08-29T20:11:13.732Z,101573.34
2022-08-29T20:13:41.036Z,101567.50
2022-08-29T20:16:13.930Z,101554.06
2022-08-29T20:18:42.590Z,101571.25
2022-08-29T20:21:10.990Z,101565.00
2022-08-29T20:23:38.576Z,101563.41
2022-08-29T20:26:15.441Z,101573.22
2022-08-29T20:28:42.401Z,101570.72
2022-08-29T20:31:09.666Z,101575.53
2022-08-29T20:33:39.711Z,101582.31
2022-08-29T20:36:26.598Z,101580.84
2022-08-29T20:38:54.338Z,101581.81
2022-08-29T20:41:21.906Z,101584.44
2022-08-29T20:43:49.040Z,101573.22
2022-08-29T20:46:15.747Z,101583.31
2022-08-29T20:48:42.565Z,101581.19
2022-08-29T20:51:10.229Z,101582.56
2022-08-29T20:53:42.871Z,101587.09
2022-08-29T20:56:09.801Z,101568.28
2022-08-29T20:58:38.708Z,101588.78
2022-08-29T21:01:05.784Z,101593.44
2022-08-29T21:03:57.510Z,101590.78
2022-08-29T21:06:24.927Z,101590.47
2022-08-29T21:08:53.822Z,101591.19
2022-08-29T21:11:21.008Z,101598.13
2022-08-29T21:13:53.351Z,101609.59
2022-08-29T21:16:20.653Z,101613.97
2022-08-29T21:18:53.208Z,101613.59
2022-08-29T21:21:24.477Z,101618.53
2022-08-29T21:23:55.805Z,101595.13
2022-08-29T21:26:23.796Z,101611.94
2022-08-29T21:28:51.908Z,101612.34
2022-08-29T21:31:24.799Z,101613.09
2022-08-29T21:33:51.640Z,101618.75
2022-08-29T21:36:22.954Z,101611.19
2022-08-29T21:38:54.157Z,101609.06
2022-08-29T21:41:22.105Z,101617.91
2022-08-29T21:43:48.841Z,101617.28
2022-08-29T21:46:18.425Z,101626.28
2022-08-29T21:48:45.835Z,101623.75
2022-08-29T21:51:14.096Z,101626.16
2022-08-29T21:53:42.513Z,101625.91
2022-08-29T21:56:09.168Z,101632.84
2022-08-29T21:58:37.113Z,101626.97
2022-08-29T22:01:04.879Z,101632.84
2022-08-29T22:03:31.562Z,101632.94
2022-08-29T22:05:58.238Z,101628.44
2022-08-29T22:08:25.765Z,101635.47
2022-08-29T22:10:52.378Z,101632.47
2022-08-29T22:13:19.084Z,101633.41
2022-08-29T22:16:04.532Z,101629.50
2022-08-29T22:18:31.377Z,101644.09
2022-08-29T22:21:00.468Z,101638.31
2022-08-29T22:23:27.267Z,101641.03
2022-08-29T22:25:54.073Z,101631.34
2022-08-29T22:28:21.255Z,101645.94
2022-08-29T22:30:48.799Z,101642.75
2022-08-29T22:33:16.372Z,101645.31
2022-08-29T22:35:44.075Z,101645.56
2022-08-29T22:38:10.913Z,101638.75
2022-08-29T22:40:37.696Z,101631.41
2022-08-29T22:43:04.435Z,101645.25
2022-08-29T22:45:32.227Z,101643.66
2022-08-29T22:47:58.959Z,101646.28
2022-08-29T22:50:26.330Z,101639.44
2022-08-29T22:52:57.084Z,101634.59
2022-08-29T22:57:49.711Z,101631.31
2022-08-29T23:00:19.661Z,101641.06
2022-08-29T23:02:46.912Z,101637.91
2022-08-29T23:05:13.892Z,101639.66
2022-08-29T23:07:40.931Z,101635.53
2022-08-29T23:10:10.071Z,101633.22
2022-08-29T23:12:37.510Z,101625.75
2022-08-29T23:15:08.144Z,101634.25
2022-08-29T23:17:34.968Z,101633.91
2022-08-29T23:20:02.055Z,101643.91
2022-08-29T23:22:28.954Z,101638.66
2022-08-29T23:24:58.375Z,101649.88
2022-08-29T23:27:29.880Z,101645.19
2022-08-29T23:29:57.410Z,101645.38
2022-08-29T23:32:24.156Z,101634.53
2022-08-29T23:34:52.130Z,101644.28
2022-08-29T23:37:18.776Z,101641.00
2022-08-29T23:39:46.725Z,101643.53
2022-08-29T23:42:13.398Z,101641.94
2022-08-29T23:44:40.017Z,101647.38
2022-08-29T23:47:08.495Z,101639.59
2022-08-29T23:49:35.557Z,101645.03
2022-08-29T23:52:03.132Z,101653.28
2022-08-29T23:54:31.423Z,101646.72
2022-08-29T23:56:58.214Z,101639.66
2022-08-29T23:59:43.548Z,101646.66
